createdAt,value
2023-04-15T00:00:05.011Z,100280.97
2023-04-15T00:01:06.806Z,100274.59
2023-04-15T00:02:19.011Z,100270.13
2023-04-15T00:03:20.857Z,100279.03
2023-04-15T00:04:22.612Z,100284.53
2023-04-15T00:05:24.134Z,100278.34
2023-04-15T00:06:26.256Z,100285.63
2023-04-15T00:07:27.735Z,100284.81
2023-04-15T00:08:30.071Z,100286.47
2023-04-15T00:09:31.517Z,100278.25
2023-04-15T00:10:32.965Z,100273.56
2023-04-15T00:11:34.728Z,100279.81
2023-04-15T00:12:36.462Z,100275.59
2023-04-15T00:13:38.482Z,100274.59
2023-04-15T00:14:40.022Z,100283.63
2023-04-15T00:15:41.443Z,100282.72
2023-04-15T00:16:42.964Z,100271.66
2023-04-15T00:17:44.496Z,100265.53
2023-04-15T00:18:46.305Z,100264.69
2023-04-15T00:19:48.282Z,100258.34
2023-04-15T00:20:49.717Z,100265.66
2023-04-15T00:21:51.402Z,100270.31
2023-04-15T00:22:53.544Z,100265.84
2023-04-15T00:23:55.146Z,100273.09
2023-04-15T00:24:56.598Z,100268.63
2023-04-15T00:25:58.039Z,100270.38
2023-04-15T00:26:59.993Z,100273.09
2023-04-15T00:28:01.619Z,100264.03
2023-04-15T00:29:03.207Z,100275.81
2023-04-15T00:30:05.323Z,100273.81
2023-04-15T00:31:06.815Z,100267.41
2023-04-15T00:32:09.163Z,100268.44
2023-04-15T00:33:10.998Z,100267.59
2023-04-15T00:34:12.844Z,100271.94
2023-04-15T00:35:14.313Z,100273.81
2023-04-15T00:36:15.717Z,100256.59
2023-04-15T00:37:17.146Z,100245.00
2023-04-15T00:38:18.620Z,100256.63
2023-04-15T00:39:20.380Z,100268.31
2023-04-15T00:40:24.516Z,100268.47
2023-04-15T00:41:25.988Z,100267.66
2023-04-15T00:42:27.830Z,100265.94
2023-04-15T00:43:29.643Z,100270.50
2023-04-15T00:44:31.438Z,100264.13
2023-04-15T00:45:33.371Z,100268.53
2023-04-15T00:46:39.078Z,100271.00
2023-04-15T00:47:42.259Z,100250.28
2023-04-15T00:48:44.036Z,100249.44
2023-04-15T00:49:45.500Z,100257.66
2023-04-15T00:50:46.981Z,100262.25
2023-04-15T00:51:48.453Z,100265.00
2023-04-15T00:52:49.900Z,100251.50
2023-04-15T00:53:51.975Z,100257.84
2023-04-15T00:54:53.634Z,100248.56
2023-04-15T00:55:55.900Z,100254.09
2023-04-15T00:56:57.975Z,100250.44
2023-04-15T00:57:59.652Z,100263.09
2023-04-15T00:59:02.237Z,100255.06
2023-04-15T01:00:08.725Z,100255.94
2023-04-15T01:01:11.347Z,100256.81
2023-04-15T01:02:13.066Z,100259.59
2023-04-15T01:03:15.516Z,100250.47
2023-04-15T01:04:17.269Z,100256.00
2023-04-15T01:05:19.575Z,100252.28
2023-04-15T01:06:21.415Z,100254.09
2023-04-15T01:07:22.873Z,100253.84
2023-04-15T01:08:28.228Z,100246.47
2023-04-15T01:09:29.654Z,100251.91
2023-04-15T01:10:31.862Z,100250.13
2023-04-15T01:11:36.509Z,100246.59
2023-04-15T01:12:39.506Z,100246.66
2023-04-15T01:13:41.623Z,100242.19
2023-04-15T01:14:43.455Z,100242.22
2023-04-15T01:15:45.332Z,100245.81
2023-04-15T01:16:46.929Z,100240.16
2023-04-15T01:17:48.857Z,100239.31
2023-04-15T01:18:50.349Z,100242.00
2023-04-15T01:19:52.241Z,100240.28
2023-04-15T01:20:54.070Z,100241.09
2023-04-15T01:21:56.298Z,100227.59
2023-04-15T01:22:57.770Z,100241.22
2023-04-15T01:23:59.545Z,100248.66
2023-04-15T01:25:10.337Z,100235.63
2023-04-15T01:26:12.126Z,100234.13
2023-04-15T01:27:13.575Z,100243.06
2023-04-15T01:28:15.122Z,100245.97
2023-04-15T01:29:16.568Z,100250.53
2023-04-15T01:30:18.080Z,100239.81
2023-04-15T01:31:19.565Z,100248.88
2023-04-15T01:32:21.060Z,100246.09
2023-04-15T01:33:22.483Z,100239.38
2023-04-15T01:34:23.923Z,100240.41
2023-04-15T01:35:25.553Z,100237.88
2023-04-15T01:36:26.953Z,100244.22
2023-04-15T01:37:28.955Z,100245.06
2023-04-15T01:38:31.261Z,100243.38
2023-04-15T01:39:32.655Z,100245.31
2023-04-15T01:40:35.039Z,100243.50
2023-04-15T01:41:36.528Z,100238.03
2023-04-15T01:42:38.318Z,100233.50
2023-04-15T01:43:39.903Z,100235.25
2023-04-15T01:44:41.341Z,100231.63
2023-04-15T01:45:42.801Z,100237.94
2023-04-15T01:46:44.312Z,100239.63
2023-04-15T01:47:45.788Z,100232.28
2023-04-15T01:48:47.277Z,100234.19
2023-04-15T01:49:48.811Z,100242.34
2023-04-15T01:50:50.650Z,100241.31
2023-04-15T01:51:52.064Z,100235.66
2023-04-15T01:52:53.476Z,100226.56
2023-04-15T01:53:56.875Z,100237.34
2023-04-15T01:54:58.288Z,100235.81
2023-04-15T01:56:00.308Z,100239.56
2023-04-15T01:57:02.201Z,100235.09
2023-04-15T01:58:04.022Z,100243.25
2023-04-15T01:59:06.160Z,100228.84
2023-04-15T02:00:08.173Z,100241.63
2023-04-15T02:01:11.353Z,100234.47
2023-04-15T02:02:12.974Z,100229.09
2023-04-15T02:03:14.458Z,100230.97
2023-04-15T02:04:18.622Z,100231.03
2023-04-15T02:05:22.231Z,100231.81
2023-04-15T02:06:24.389Z,100232.31
2023-04-15T02:07:26.362Z,100223.44
2023-04-15T02:08:28.565Z,100227.03
2023-04-15T02:09:30.201Z,100219.91
2023-04-15T02:10:31.636Z,100227.16
2023-04-15T02:11:33.025Z,100233.63
2023-04-15T02:12:34.438Z,100235.38
2023-04-15T02:13:36.256Z,100226.38
2023-04-15T02:14:37.699Z,100227.34
2023-04-15T02:15:39.186Z,100224.72
2023-04-15T02:16:41.212Z,100223.66
2023-04-15T02:17:45.907Z,100229.97
2023-04-15T02:18:47.859Z,100229.28
2023-04-15T02:19:49.466Z,100232.06
2023-04-15T02:20:52.417Z,100226.50
2023-04-15T02:21:53.801Z,100221.88
2023-04-15T02:22:55.213Z,100218.25
2023-04-15T02:23:57.183Z,100217.59
2023-04-15T02:24:59.094Z,100230.28
2023-04-15T02:26:00.550Z,100226.78
2023-04-15T02:27:02.145Z,100228.25
2023-04-15T02:28:03.749Z,100226.31
2023-04-15T02:29:05.183Z,100222.66
2023-04-15T02:30:07.380Z,100214.56
2023-04-15T02:31:09.594Z,100221.94
2023-04-15T02:32:11.997Z,100227.50
2023-04-15T02:33:13.466Z,100222.78
2023-04-15T02:34:15.178Z,100222.63
2023-04-15T02:35:19.126Z,100223.53
2023-04-15T02:36:21.317Z,100229.94
2023-04-15T02:37:23.213Z,100225.59
2023-04-15T02:38:24.923Z,100218.38
2023-04-15T02:39:26.386Z,100220.97
2023-04-15T02:40:27.855Z,100223.69
2023-04-15T02:41:30.008Z,100217.53
2023-04-15T02:42:31.912Z,100227.50
2023-04-15T02:43:33.323Z,100224.59
2023-04-15T02:44:36.413Z,100223.66
2023-04-15T02:45:37.912Z,100224.56
2023-04-15T02:46:41.217Z,100227.34
2023-04-15T02:47:43.326Z,100232.66
2023-04-15T02:48:44.812Z,100222.84
2023-04-15T02:49:46.219Z,100231.09
2023-04-15T02:50:48.064Z,100238.34
2023-04-15T02:51:49.816Z,100232.91
2023-04-15T02:52:52.220Z,100223.88
2023-04-15T02:53:53.844Z,100231.69
2023-04-15T02:55:00.440Z,100228.78
2023-04-15T02:56:01.897Z,100237.03
2023-04-15T02:57:06.087Z,100228.00
2023-04-15T02:58:07.555Z,100219.88
2023-04-15T02:59:08.962Z,100229.94
2023-04-15T03:00:11.920Z,100227.28
2023-04-15T03:01:13.670Z,100235.50
2023-04-15T03:02:15.230Z,100229.19
2023-04-15T03:03:16.858Z,100233.50
2023-04-15T03:04:18.482Z,100229.50
2023-04-15T03:05:19.960Z,100232.19
2023-04-15T03:06:21.394Z,100231.16
2023-04-15T03:07:22.913Z,100225.66
2023-04-15T03:08:24.383Z,100232.94
2023-04-15T03:09:26.423Z,100231.28
2023-04-15T03:10:28.386Z,100235.91
2023-04-15T03:11:29.844Z,100226.69
2023-04-15T03:12:31.342Z,100235.75
2023-04-15T03:13:32.848Z,100236.84
2023-04-15T03:14:34.284Z,100234.19
2023-04-15T03:15:36.193Z,100229.75
2023-04-15T03:16:37.629Z,100228.63
2023-04-15T03:17:39.250Z,100230.44
2023-04-15T03:18:40.732Z,100236.78
2023-04-15T03:19:42.141Z,100234.06
2023-04-15T03:20:43.584Z,100217.16
2023-04-15T03:21:45.062Z,100239.72
2023-04-15T03:22:46.434Z,100245.13
2023-04-15T03:23:48.731Z,100235.88
2023-04-15T03:24:50.458Z,100241.09
2023-04-15T03:25:51.921Z,100237.53
2023-04-15T03:26:53.352Z,100232.91
2023-04-15T03:27:54.751Z,100231.72
2023-04-15T03:28:56.683Z,100230.88
2023-04-15T03:29:58.062Z,100233.72
2023-04-15T03:30:59.987Z,100238.41
2023-04-15T03:32:01.722Z,100241.22
2023-04-15T03:33:03.238Z,100244.81
2023-04-15T03:34:04.676Z,100233.09
2023-04-15T03:35:06.464Z,100231.94
2023-04-15T03:36:07.913Z,100235.41
2023-04-15T03:37:09.346Z,100226.44
2023-04-15T03:38:10.756Z,100237.81
2023-04-15T03:39:12.296Z,100226.88
2023-04-15T03:40:13.760Z,100233.50
2023-04-15T03:41:15.181Z,100238.25
2023-04-15T03:42:16.612Z,100229.06
2023-04-15T03:43:18.016Z,100219.72
2023-04-15T03:44:19.456Z,100230.56
2023-04-15T03:45:21.118Z,100222.63
2023-04-15T03:46:22.668Z,100232.69
2023-04-15T03:47:24.187Z,100228.38
2023-04-15T03:48:25.760Z,100230.53
2023-04-15T03:49:27.180Z,100227.75
2023-04-15T03:50:28.671Z,100236.91
2023-04-15T03:51:30.204Z,100235.78
2023-04-15T03:52:31.689Z,100229.75
2023-04-15T03:53:33.084Z,100229.06
2023-04-15T03:54:34.475Z,100230.94
2023-04-15T03:55:35.858Z,100237.06
2023-04-15T03:56:37.300Z,100238.03
2023-04-15T03:57:39.591Z,100241.88
2023-04-15T03:58:41.383Z,100239.16
2023-04-15T03:59:42.840Z,100241.94
2023-04-15T04:00:44.238Z,100240.06
2023-04-15T04:01:45.823Z,100246.19
2023-04-15T04:02:47.398Z,100239.94
2023-04-15T04:03:49.006Z,100239.16
2023-04-15T04:04:50.816Z,100245.56
2023-04-15T04:05:52.431Z,100243.66
2023-04-15T04:06:53.858Z,100237.25
2023-04-15T04:07:55.270Z,100235.56
2023-04-15T04:08:56.679Z,100244.66
2023-04-15T04:09:58.276Z,100239.31
2023-04-15T04:10:59.677Z,100239.38
2023-04-15T04:12:01.250Z,100243.94
2023-04-15T04:13:02.653Z,100242.88
2023-04-15T04:14:04.053Z,100251.97
2023-04-15T04:15:06.766Z,100246.59
2023-04-15T04:16:08.370Z,100251.97
2023-04-15T04:17:10.580Z,100245.47
2023-04-15T04:18:12.433Z,100252.78
2023-04-15T04:19:14.922Z,100246.59
2023-04-15T04:20:16.611Z,100244.75
2023-04-15T04:21:18.202Z,100247.22
2023-04-15T04:22:23.991Z,100252.72
2023-04-15T04:23:25.723Z,100244.59
2023-04-15T04:24:27.140Z,100246.47
2023-04-15T04:25:28.543Z,100243.75
2023-04-15T04:26:29.957Z,100246.38
2023-04-15T04:27:31.377Z,100242.56
2023-04-15T04:28:32.932Z,100242.63
2023-04-15T04:29:35.457Z,100246.19
2023-04-15T04:30:37.013Z,100246.28
2023-04-15T04:31:38.715Z,100241.59
2023-04-15T04:32:40.252Z,100244.28
2023-04-15T04:33:41.766Z,100243.25
2023-04-15T04:34:43.203Z,100239.75
2023-04-15T04:35:44.742Z,100246.19
2023-04-15T04:36:46.484Z,100242.38
2023-04-15T04:37:47.965Z,100245.75
2023-04-15T04:38:49.395Z,100244.91
2023-04-15T04:39:51.081Z,100244.91
2023-04-15T04:40:52.499Z,100246.72
2023-04-15T04:41:53.948Z,100242.13
2023-04-15T04:42:55.433Z,100245.91
2023-04-15T04:43:56.858Z,100237.91
2023-04-15T04:44:58.264Z,100241.53
2023-04-15T04:45:59.744Z,100248.91
2023-04-15T04:47:01.223Z,100250.66
2023-04-15T04:48:02.767Z,100244.09
2023-04-15T04:49:04.475Z,100246.66
2023-04-15T04:50:06.804Z,100253.13
2023-04-15T04:51:09.361Z,100247.88
2023-04-15T04:52:10.958Z,100256.97
2023-04-15T04:53:12.887Z,100256.00
2023-04-15T04:54:14.391Z,100255.16
2023-04-15T04:55:15.915Z,100254.88
2023-04-15T04:56:17.314Z,100251.41
2023-04-15T04:57:18.766Z,100263.16
2023-04-15T04:58:20.569Z,100255.06
2023-04-15T04:59:22.014Z,100257.72
2023-04-15T05:00:23.457Z,100261.22
2023-04-15T05:01:26.605Z,100247.00
2023-04-15T05:02:28.322Z,100254.91
2023-04-15T05:03:30.027Z,100262.19
2023-04-15T05:04:31.987Z,100264.00
2023-04-15T05:05:34.125Z,100255.03
2023-04-15T05:06:36.758Z,100255.94
2023-04-15T05:07:39.452Z,100258.63
2023-04-15T05:08:41.297Z,100258.72
2023-04-15T05:09:42.813Z,100269.50
2023-04-15T05:10:44.288Z,100269.44
2023-04-15T05:11:45.693Z,100261.28
2023-04-15T05:12:47.119Z,100260.16
2023-04-15T05:13:48.568Z,100271.03
2023-04-15T05:14:49.980Z,100276.53
2023-04-15T05:15:51.588Z,100266.66
2023-04-15T05:16:53.071Z,100273.91
2023-04-15T05:17:54.575Z,100271.19
2023-04-15T05:18:56.077Z,100274.78
2023-04-15T05:19:57.513Z,100272.03
2023-04-15T05:20:59.517Z,100270.28
2023-04-15T05:22:01.111Z,100278.34
2023-04-15T05:23:02.555Z,100278.28
2023-04-15T05:24:04.339Z,100283.56
2023-04-15T05:25:06.001Z,100267.13
2023-04-15T05:26:07.827Z,100282.59
2023-04-15T05:27:11.486Z,100280.84
2023-04-15T05:28:12.913Z,100281.00
2023-04-15T05:29:14.380Z,100278.31
2023-04-15T05:30:15.988Z,100276.41
2023-04-15T05:31:17.511Z,100284.59
2023-04-15T05:32:19.027Z,100288.16
2023-04-15T05:33:20.536Z,100277.28
2023-04-15T05:34:22.354Z,100283.56
2023-04-15T05:35:23.834Z,100284.47
2023-04-15T05:36:25.936Z,100273.59
2023-04-15T05:37:27.374Z,100278.16
2023-04-15T05:38:28.831Z,100280.84
2023-04-15T05:39:31.444Z,100273.59
2023-04-15T05:40:32.900Z,100279.94
2023-04-15T05:41:34.570Z,100279.84
2023-04-15T05:42:36.442Z,100276.09
2023-04-15T05:43:37.860Z,100273.34
2023-04-15T05:44:39.295Z,100284.16
2023-04-15T05:45:40.679Z,100271.34
2023-04-15T05:46:42.472Z,100277.63
2023-04-15T05:47:43.983Z,100272.09
2023-04-15T05:48:45.585Z,100273.75
2023-04-15T05:49:47.059Z,100269.97
2023-04-15T05:50:48.530Z,100268.09
2023-04-15T05:51:50.036Z,100266.25
2023-04-15T05:52:51.520Z,100269.75
2023-04-15T05:53:53.090Z,100273.06
2023-04-15T05:54:54.549Z,100270.94
2023-04-15T05:55:55.965Z,100270.97
2023-04-15T05:56:58.272Z,100275.59
2023-04-15T05:57:59.857Z,100269.31
2023-04-15T05:59:01.766Z,100275.75
2023-04-15T06:00:05.164Z,100270.25
2023-04-15T06:01:07.170Z,100275.66
2023-04-15T06:02:09.745Z,100275.66
2023-04-15T06:03:11.814Z,100269.25
2023-04-15T06:04:13.452Z,100272.94
2023-04-15T06:05:15.104Z,100276.56
2023-04-15T06:06:16.568Z,100275.69
2023-04-15T06:07:17.982Z,100276.41
2023-04-15T06:08:19.479Z,100271.97
2023-04-15T06:09:20.922Z,100275.56
2023-04-15T06:10:22.376Z,100276.50
2023-04-15T06:11:24.559Z,100277.38
2023-04-15T06:12:25.999Z,100276.50
2023-04-15T06:13:27.553Z,100272.84
2023-04-15T06:14:29.008Z,100279.22
2023-04-15T06:15:30.628Z,100281.03
2023-04-15T06:16:32.286Z,100279.22
2023-04-15T06:17:33.781Z,100274.59
2023-04-15T06:18:35.201Z,100278.22
2023-04-15T06:19:36.712Z,100281.81
2023-04-15T06:20:38.553Z,100274.59
2023-04-15T06:21:40.474Z,100279.66
2023-04-15T06:22:41.880Z,100281.44
2023-04-15T06:23:43.428Z,100277.94
2023-04-15T06:24:44.871Z,100288.81
2023-04-15T06:25:46.603Z,100284.22
2023-04-15T06:26:48.016Z,100282.31
2023-04-15T06:27:49.653Z,100275.16
2023-04-15T06:28:51.286Z,100284.13
2023-04-15T06:29:52.818Z,100286.78
2023-04-15T06:30:55.563Z,100289.56
2023-04-15T06:31:57.703Z,100277.72
2023-04-15T06:32:59.829Z,100292.19
2023-04-15T06:34:01.289Z,100292.13
2023-04-15T06:35:02.793Z,100297.56
2023-04-15T06:36:04.285Z,100292.09
2023-04-15T06:37:06.411Z,100301.06
2023-04-15T06:38:07.913Z,100298.09
2023-04-15T06:39:09.295Z,100299.78
2023-04-15T06:40:11.040Z,100303.19
2023-04-15T06:41:12.748Z,100297.75
2023-04-15T06:42:14.246Z,100303.06
2023-04-15T06:43:15.670Z,100306.59
2023-04-15T06:44:17.113Z,100305.44
2023-04-15T06:45:18.516Z,100306.13
2023-04-15T06:46:20.235Z,100294.78
2023-04-15T06:47:21.812Z,100304.03
2023-04-15T06:48:24.879Z,100308.59
2023-04-15T06:49:26.672Z,100310.56
2023-04-15T06:50:28.169Z,100316.97
2023-04-15T06:51:30.260Z,100311.59
2023-04-15T06:52:31.746Z,100316.13
2023-04-15T06:53:33.287Z,100311.59
2023-04-15T06:54:34.709Z,100307.88
2023-04-15T06:55:36.443Z,100315.88
2023-04-15T06:56:37.860Z,100319.66
2023-04-15T06:57:39.283Z,100312.06
2023-04-15T06:58:40.806Z,100312.41
2023-04-15T06:59:43.322Z,100310.63
2023-04-15T07:00:44.893Z,100309.47
2023-04-15T07:01:46.484Z,100316.84
2023-04-15T07:02:48.166Z,100316.56
2023-04-15T07:03:49.744Z,100305.69
2023-04-15T07:04:51.154Z,100304.78
2023-04-15T07:05:52.689Z,100314.84
2023-04-15T07:06:55.543Z,100318.47
2023-04-15T07:07:57.324Z,100318.41
2023-04-15T07:08:59.027Z,100321.13
2023-04-15T07:10:02.098Z,100322.84
2023-04-15T07:11:03.586Z,100319.28
2023-04-15T07:12:05.145Z,100322.03
2023-04-15T07:13:08.699Z,100328.28
2023-04-15T07:14:10.138Z,100320.09
2023-04-15T07:15:12.062Z,100335.63
2023-04-15T07:16:13.652Z,100331.13
2023-04-15T07:17:15.317Z,100329.41
2023-04-15T07:18:16.783Z,100334.13
2023-04-15T07:19:18.191Z,100325.13
2023-04-15T07:20:19.724Z,100332.47
2023-04-15T07:21:21.196Z,100329.78
2023-04-15T07:22:22.668Z,100342.56
2023-04-15T07:23:24.208Z,100339.13
2023-04-15T07:24:26.786Z,100345.56
2023-04-15T07:25:28.198Z,100343.84
2023-04-15T07:26:29.719Z,100341.28
2023-04-15T07:27:31.140Z,100343.09
2023-04-15T07:28:32.586Z,100343.13
2023-04-15T07:29:34.033Z,100347.66
2023-04-15T07:30:35.612Z,100351.38
2023-04-15T07:31:37.218Z,100346.03
2023-04-15T07:32:38.860Z,100345.94
2023-04-15T07:33:40.359Z,100334.22
2023-04-15T07:34:42.158Z,100337.78
2023-04-15T07:35:43.635Z,100346.81
2023-04-15T07:36:46.050Z,100342.28
2023-04-15T07:37:48.503Z,100348.56
2023-04-15T07:38:49.902Z,100346.66
2023-04-15T07:39:51.340Z,100341.38
2023-04-15T07:40:52.844Z,100348.47
2023-04-15T07:41:54.295Z,100349.47
2023-04-15T07:42:58.603Z,100353.03
2023-04-15T07:44:00.422Z,100344.88
2023-04-15T07:45:01.897Z,100349.47
2023-04-15T07:46:03.623Z,100342.41
2023-04-15T07:47:05.353Z,100348.66
2023-04-15T07:48:06.908Z,100348.56
2023-04-15T07:49:08.610Z,100353.09
2023-04-15T07:50:13.319Z,100349.53
2023-04-15T07:51:14.764Z,100351.38
2023-04-15T07:52:16.628Z,100351.47
2023-04-15T07:53:18.191Z,100351.53
2023-04-15T07:54:19.654Z,100352.34
2023-04-15T07:55:23.282Z,100357.84
2023-04-15T07:56:24.817Z,100350.53
2023-04-15T07:57:26.247Z,100353.34
2023-04-15T07:58:27.695Z,100359.63
2023-04-15T07:59:31.015Z,100363.25
2023-04-15T08:00:32.455Z,100356.91
2023-04-15T08:01:33.981Z,100348.03
2023-04-15T08:02:36.903Z,100364.34
2023-04-15T08:03:39.987Z,100358.84
2023-04-15T08:04:41.647Z,100358.78
2023-04-15T08:05:43.352Z,100357.16
2023-04-15T08:06:44.820Z,100357.28
2023-04-15T08:07:46.796Z,100362.72
2023-04-15T08:08:48.195Z,100363.69
2023-04-15T08:09:49.694Z,100361.00
2023-04-15T08:10:52.849Z,100353.78
2023-04-15T08:11:54.565Z,100359.97
2023-04-15T08:12:56.443Z,100366.31
2023-04-15T08:13:57.937Z,100363.66
2023-04-15T08:14:59.421Z,100368.22
2023-04-15T08:16:24.497Z,100373.75
2023-04-15T08:17:26.188Z,100363.75
2023-04-15T08:18:27.613Z,100368.22
2023-04-15T08:19:29.170Z,100371.03
2023-04-15T08:20:30.604Z,100370.13
2023-04-15T08:21:32.241Z,100364.72
2023-04-15T08:22:34.374Z,100370.13
2023-04-15T08:23:35.990Z,100377.31
2023-04-15T08:24:38.559Z,100366.38
2023-04-15T08:25:41.106Z,100374.56
2023-04-15T08:26:42.681Z,100371.75
2023-04-15T08:27:44.137Z,100373.53
2023-04-15T08:28:46.852Z,100379.63
2023-04-15T08:29:48.274Z,100372.28
2023-04-15T08:30:49.774Z,100384.13
2023-04-15T08:31:51.681Z,100384.22
2023-04-15T08:32:53.208Z,100390.56
2023-04-15T08:33:56.790Z,100382.56
2023-04-15T08:34:58.231Z,100377.13
2023-04-15T08:35:59.671Z,100380.63
2023-04-15T08:37:01.234Z,100379.69
2023-04-15T08:38:02.680Z,100386.06
2023-04-15T08:39:04.960Z,100380.50
2023-04-15T08:40:08.434Z,100376.91
2023-04-15T08:41:21.339Z,100385.03
2023-04-15T08:42:35.301Z,100389.59
2023-04-15T08:43:39.061Z,100394.13
2023-04-15T08:44:40.625Z,100388.84
2023-04-15T08:45:43.643Z,100386.06
2023-04-15T08:46:45.080Z,100386.06
2023-04-15T08:47:52.767Z,100386.97
2023-04-15T08:48:57.734Z,100384.13
2023-04-15T08:49:59.707Z,100388.75
2023-04-15T08:51:01.253Z,100386.94
2023-04-15T08:52:04.360Z,100396.03
2023-04-15T08:53:06.315Z,100396.94
2023-04-15T08:54:10.894Z,100395.25
2023-04-15T08:55:13.686Z,100389.84
2023-04-15T08:56:18.651Z,100395.28
2023-04-15T08:57:20.329Z,100395.25
2023-04-15T08:58:22.185Z,100398.00
2023-04-15T08:59:24.124Z,100386.28
2023-04-15T09:00:25.993Z,100388.84
2023-04-15T09:01:27.667Z,100393.22
2023-04-15T09:02:29.827Z,100391.50
2023-04-15T09:03:32.053Z,100389.75
2023-04-15T09:04:33.744Z,100384.22
2023-04-15T09:05:38.642Z,100400.28
2023-04-15T09:06:41.353Z,100391.06
2023-04-15T09:07:42.849Z,100395.50
2023-04-15T09:08:44.868Z,100391.88
2023-04-15T09:09:46.497Z,100394.59
2023-04-15T09:10:47.936Z,100398.31
2023-04-15T09:11:51.353Z,100391.06
2023-04-15T09:12:53.033Z,100399.13
2023-04-15T09:13:54.404Z,100385.63
2023-04-15T09:14:57.569Z,100396.47
2023-04-15T09:16:01.414Z,100399.13
2023-04-15T09:17:04.827Z,100397.28
2023-04-15T09:18:06.972Z,100400.13
2023-04-15T09:19:21.573Z,100399.22
2023-04-15T09:20:23.722Z,100394.59
2023-04-15T09:21:25.184Z,100397.41
2023-04-15T09:22:32.883Z,100405.72
2023-04-15T09:23:35.524Z,100402.19
2023-04-15T09:24:39.750Z,100406.66
2023-04-15T09:25:42.600Z,100408.47
2023-04-15T09:26:44.066Z,100410.19
2023-04-15T09:27:49.805Z,100414.66
2023-04-15T09:28:51.262Z,100414.56
2023-04-15T09:29:54.080Z,100415.47
2023-04-15T09:30:59.755Z,100424.66
2023-04-15T09:32:14.506Z,100417.47
2023-04-15T09:33:16.231Z,100416.63
2023-04-15T09:34:17.930Z,100422.06
2023-04-15T09:35:21.493Z,100422.06
2023-04-15T09:36:23.045Z,100422.88
2023-04-15T09:37:36.918Z,100418.19
2023-04-15T09:38:56.058Z,100427.44
2023-04-15T09:39:57.512Z,100426.53
2023-04-15T09:40:59.328Z,100431.22
2023-04-15T09:42:07.557Z,100430.22
2023-04-15T09:43:12.791Z,100429.25
2023-04-15T09:44:24.402Z,100429.19
2023-04-15T09:45:29.302Z,100425.63
2023-04-15T09:46:44.524Z,100426.63
2023-04-15T09:47:46.287Z,100428.53
2023-04-15T09:49:07.760Z,100430.41
2023-04-15T09:50:09.589Z,100431.41
2023-04-15T09:51:11.012Z,100430.50
2023-04-15T09:52:14.002Z,100432.34
2023-04-15T09:53:20.490Z,100437.84
2023-04-15T09:54:21.993Z,100431.50
2023-04-15T09:55:23.692Z,100435.97
2023-04-15T09:56:34.704Z,100435.13
2023-04-15T09:57:37.367Z,100434.22
2023-04-15T09:58:38.965Z,100433.41
2023-04-15T09:59:41.999Z,100435.06
2023-04-15T10:00:43.900Z,100439.50
2023-04-15T10:01:45.730Z,100439.59
2023-04-15T10:02:47.790Z,100441.31
2023-04-15T10:03:50.809Z,100439.56
2023-04-15T10:04:53.700Z,100445.91
2023-04-15T10:05:57.302Z,100452.03
2023-04-15T10:07:00.409Z,100445.84
2023-04-15T10:08:02.437Z,100445.84
2023-04-15T10:09:04.287Z,100450.47
2023-04-15T10:10:06.640Z,100448.56
2023-04-15T10:11:08.582Z,100443.19
2023-04-15T10:12:10.320Z,100444.03
2023-04-15T10:13:14.666Z,100450.44
2023-04-15T10:14:17.503Z,100453.00
2023-04-15T10:15:19.219Z,100451.06
2023-04-15T10:16:21.749Z,100447.56
2023-04-15T10:17:25.827Z,100455.66
2023-04-15T10:18:28.631Z,100455.56
2023-04-15T10:19:33.234Z,100452.03
2023-04-15T10:20:36.817Z,100453.75
2023-04-15T10:21:39.036Z,100458.44
2023-04-15T10:22:42.174Z,100459.38
2023-04-15T10:23:45.133Z,100462.16
2023-04-15T10:24:47.187Z,100456.56
2023-04-15T10:25:54.425Z,100457.47
2023-04-15T10:26:57.203Z,100462.81
2023-04-15T10:27:59.263Z,100458.22
2023-04-15T10:29:01.269Z,100464.41
2023-04-15T10:30:03.746Z,100457.16
2023-04-15T10:31:07.250Z,100456.38
2023-04-15T10:32:10.272Z,100451.03
2023-04-15T10:33:12.657Z,100457.44
2023-04-15T10:34:15.936Z,100456.56
2023-04-15T10:35:18.640Z,100456.56
2023-04-15T10:36:20.962Z,100464.66
2023-04-15T10:37:33.370Z,100459.22
2023-04-15T10:38:45.591Z,100460.09
2023-04-15T10:39:47.854Z,100461.88
2023-04-15T10:40:50.518Z,100454.66
2023-04-15T10:42:15.317Z,100465.72
2023-04-15T10:43:27.076Z,100459.28
2023-04-15T10:44:28.543Z,100462.84
2023-04-15T10:45:35.384Z,100456.66
2023-04-15T10:46:44.192Z,100471.91
2023-04-15T10:47:45.894Z,100460.19
2023-04-15T10:48:49.509Z,100465.47
2023-04-15T10:50:02.327Z,100465.50
2023-04-15T10:51:05.104Z,100467.31
2023-04-15T10:52:08.308Z,100474.56
2023-04-15T10:53:10.700Z,100470.09
2023-04-15T10:54:16.917Z,100476.44
2023-04-15T10:55:23.860Z,100465.47
2023-04-15T10:56:25.692Z,100467.31
2023-04-15T10:57:36.009Z,100469.13
2023-04-15T10:58:44.045Z,100479.25
2023-04-15T10:59:58.612Z,100483.81
2023-04-15T11:01:02.753Z,100476.63
2023-04-15T11:02:07.962Z,100476.69
2023-04-15T11:03:10.604Z,100477.59
2023-04-15T11:04:12.273Z,100478.44
2023-04-15T11:05:15.553Z,100482.88
2023-04-15T11:06:17.158Z,100483.72
2023-04-15T11:07:37.281Z,100476.44
2023-04-15T11:08:56.124Z,100481.72
2023-04-15T11:09:57.580Z,100480.09
2023-04-15T11:10:59.101Z,100481.88
2023-04-15T11:12:08.696Z,100486.34
2023-04-15T11:13:10.121Z,100482.63
2023-04-15T11:14:16.209Z,100483.53
2023-04-15T11:15:40.539Z,100491.81
2023-04-15T11:16:45.189Z,100491.81
2023-04-15T11:17:46.836Z,100495.53
2023-04-15T11:18:56.100Z,100498.28
2023-04-15T11:19:58.344Z,100491.94
2023-04-15T11:21:05.237Z,100496.50
2023-04-15T11:22:10.752Z,100500.88
2023-04-15T11:23:15.022Z,100492.84
2023-04-15T11:24:27.129Z,100498.31
2023-04-15T11:25:30.877Z,100499.22
2023-04-15T11:26:32.739Z,100506.47
2023-04-15T11:27:34.193Z,100510.94
2023-04-15T11:28:38.271Z,100509.22
2023-04-15T11:29:40.734Z,100509.22
2023-04-15T11:30:42.715Z,100512.91
2023-04-15T11:31:49.319Z,100511.94
2023-04-15T11:32:55.171Z,100514.66
2023-04-15T11:34:00.060Z,100513.72
2023-04-15T11:35:01.572Z,100505.59
2023-04-15T11:36:04.280Z,100518.13
2023-04-15T11:37:06.631Z,100509.94
2023-04-15T11:38:16.697Z,100517.28
2023-04-15T11:39:18.216Z,100512.75
2023-04-15T11:40:24.456Z,100520.91
2023-04-15T11:41:26.123Z,100511.75
2023-04-15T11:42:36.234Z,100520.91
2023-04-15T11:43:44.813Z,100509.94
2023-04-15T11:44:46.238Z,100512.56
2023-04-15T11:45:51.787Z,100524.50
2023-04-15T11:46:55.755Z,100523.56
2023-04-15T11:48:08.114Z,100522.72
2023-04-15T11:49:09.511Z,100524.31
2023-04-15T11:50:22.405Z,100532.56
2023-04-15T11:51:23.907Z,100519.78
2023-04-15T11:52:25.956Z,100522.25
2023-04-15T11:53:50.804Z,100520.50
2023-04-15T11:54:52.454Z,100522.19